sensor_id;sensor_type;location;lat;lon;timestamp;temperature;humidity
54576;DHT22;40472;53.486;14.542;2023-04-08T00:00:02;4.00;99.90
54576;DHT22;40472;53.486;14.542;2023-04-08T00:02:29;3.90;99.90
54576;DHT22;40472;53.486;14.542;2023-04-08T00:04:55;3.90;99.90
54576;DHT22;40472;53.486;14.542;2023-04-08T00:07:21;3.90;99.90
54576;DHT22;40472;53.486;14.542;2023-04-08T00:09:46;4.00;99.90
54576;DHT22;40472;53.486;14.542;2023-04-08T00:12:12;4.00;99.90
54576;DHT22;40472;53.486;14.542;2023-04-08T00:14:41;4.00;99.90
54576;DHT22;40472;53.486;14.542;2023-04-08T00:17:10;3.90;99.90
54576;DHT22;40472;53.486;14.542;2023-04-08T00:19:36;4.00;99.90
54576;DHT22;40472;53.486;14.542;2023-04-08T00:22:02;3.90;99.90
54576;DHT22;40472;53.486;14.542;2023-04-08T00:24:28;4.00;99.90
54576;DHT22;40472;53.486;14.542;2023-04-08T00:26:54;3.90;99.90
54576;DHT22;40472;53.486;14.542;2023-04-08T00:29:21;3.90;99.90
54576;DHT22;40472;53.486;14.542;2023-04-08T00:31:46;3.90;99.90
54576;DHT22;40472;53.486;14.542;2023-04-08T00:34:13;3.90;99.90
54576;DHT22;40472;53.486;14.542;2023-04-08T00:36:39;3.90;99.90
54576;DHT22;40472;53.486;14.542;2023-04-08T00:39:05;4.00;99.90
54576;DHT22;40472;53.486;14.542;2023-04-08T00:41:33;3.90;99.90
54576;DHT22;40472;53.486;14.542;2023-04-08T00:44:00;3.90;99.90
54576;DHT22;40472;53.486;14.542;2023-04-08T00:46:26;3.90;99.90
54576;DHT22;40472;53.486;14.542;2023-04-08T00:48:53;4.00;99.90
54576;DHT22;40472;53.486;14.542;2023-04-08T00:51:20;3.90;99.90
54576;DHT22;40472;53.486;14.542;2023-04-08T00:53:46;4.00;99.90
54576;DHT22;40472;53.486;14.542;2023-04-08T00:56:11;3.90;99.90
54576;DHT22;40472;53.486;14.542;2023-04-08T00:58:38;3.90;99.90
54576;DHT22;40472;53.486;14.542;2023-04-08T01:01:20;4.00;99.90
54576;DHT22;40472;53.486;14.542;2023-04-08T01:06:52;4.00;99.90
54576;DHT22;40472;53.486;14.542;2023-04-08T01:09:22;4.00;99.90
54576;DHT22;40472;53.486;14.542;2023-04-08T01:11:51;3.90;99.90
54576;DHT22;40472;53.486;14.542;2023-04-08T01:14:25;3.90;99.90
54576;DHT22;40472;53.486;14.542;2023-04-08T01:16:54;3.90;99.90
54576;DHT22;40472;53.486;14.542;2023-04-08T01:19:32;3.90;99.90
54576;DHT22;40472;53.486;14.542;2023-04-08T01:22:28;3.90;99.90
54576;DHT22;40472;53.486;14.542;2023-04-08T01:25:01;3.90;99.90
54576;DHT22;40472;53.486;14.542;2023-04-08T01:27:30;3.90;99.90
54576;DHT22;40472;53.486;14.542;2023-04-08T01:29:58;3.90;99.90
54576;DHT22;40472;53.486;14.542;2023-04-08T01:32:26;3.90;99.90
54576;DHT22;40472;53.486;14.542;2023-04-08T01:34:54;3.90;99.90
54576;DHT22;40472;53.486;14.542;2023-04-08T01:37:24;3.90;99.90
54576;DHT22;40472;53.486;14.542;2023-04-08T01:39:51;3.90;99.90
54576;DHT22;40472;53.486;14.542;2023-04-08T01:42:19;3.90;99.90
54576;DHT22;40472;53.486;14.542;2023-04-08T01:44:45;4.00;99.90
54576;DHT22;40472;53.486;14.542;2023-04-08T01:47:14;3.90;99.90
54576;DHT22;40472;53.486;14.542;2023-04-08T01:49:40;3.90;99.90
54576;DHT22;40472;53.486;14.542;2023-04-08T01:52:08;3.90;99.90
54576;DHT22;40472;53.486;14.542;2023-04-08T01:54:34;4.00;99.90
54576;DHT22;40472;53.486;14.542;2023-04-08T01:57:03;3.90;99.90
54576;DHT22;40472;53.486;14.542;2023-04-08T01:59:34;3.90;99.90
54576;DHT22;40472;53.486;14.542;2023-04-08T02:02:03;3.90;99.90
54576;DHT22;40472;53.486;14.542;2023-04-08T02:04:30;3.90;99.90
54576;DHT22;40472;53.486;14.542;2023-04-08T02:06:56;3.90;99.90
54576;DHT22;40472;53.486;14.542;2023-04-08T02:09:24;4.00;99.90
54576;DHT22;40472;53.486;14.542;2023-04-08T02:11:50;3.90;99.90
54576;DHT22;40472;53.486;14.542;2023-04-08T02:14:15;4.00;99.90
54576;DHT22;40472;53.486;14.542;2023-04-08T02:17:01;3.90;99.90
54576;DHT22;40472;53.486;14.542;2023-04-08T02:19:31;3.90;99.90
54576;DHT22;40472;53.486;14.542;2023-04-08T02:22:04;3.90;99.90
54576;DHT22;40472;53.486;14.542;2023-04-08T02:24:33;3.90;99.90
54576;DHT22;40472;53.486;14.542;2023-04-08T02:27:01;3.90;99.90
54576;DHT22;40472;53.486;14.542;2023-04-08T02:29:30;4.00;99.90
54576;DHT22;40472;53.486;14.542;2023-04-08T02:31:57;4.00;99.90
54576;DHT22;40472;53.486;14.542;2023-04-08T02:34:23;3.90;99.90
54576;DHT22;40472;53.486;14.542;2023-04-08T02:36:50;3.90;99.90
54576;DHT22;40472;53.486;14.542;2023-04-08T02:39:16;4.00;99.90
54576;DHT22;40472;53.486;14.542;2023-04-08T02:41:42;4.00;99.90
54576;DHT22;40472;53.486;14.542;2023-04-08T02:44:08;4.00;99.90
54576;DHT22;40472;53.486;14.542;2023-04-08T02:46:34;4.00;99.90
54576;DHT22;40472;53.486;14.542;2023-04-08T02:49:00;3.90;99.90
54576;DHT22;40472;53.486;14.542;2023-04-08T02:51:26;4.00;99.90
54576;DHT22;40472;53.486;14.542;2023-04-08T02:53:52;4.00;99.90
54576;DHT22;40472;53.486;14.542;2023-04-08T02:56:18;4.10;99.90
54576;DHT22;40472;53.486;14.542;2023-04-08T02:58:44;4.10;99.90
54576;DHT22;40472;53.486;14.542;2023-04-08T03:01:10;4.10;99.90
54576;DHT22;40472;53.486;14.542;2023-04-08T03:03:36;4.00;99.90
54576;DHT22;40472;53.486;14.542;2023-04-08T03:06:03;4.10;99.90
54576;DHT22;40472;53.486;14.542;2023-04-08T03:08:29;4.00;99.90
54576;DHT22;40472;53.486;14.542;2023-04-08T03:10:55;4.00;99.90
54576;DHT22;40472;53.486;14.542;2023-04-08T03:13:21;4.00;99.90
54576;DHT22;40472;53.486;14.542;2023-04-08T03:15:47;4.00;99.90
54576;DHT22;40472;53.486;14.542;2023-04-08T03:18:12;4.00;99.90
54576;DHT22;40472;53.486;14.542;2023-04-08T03:20:38;4.00;99.90
54576;DHT22;40472;53.486;14.542;2023-04-08T03:23:04;4.10;99.90
54576;DHT22;40472;53.486;14.542;2023-04-08T03:25:30;4.10;99.90
54576;DHT22;40472;53.486;14.542;2023-04-08T03:27:57;4.00;99.90
54576;DHT22;40472;53.486;14.542;2023-04-08T03:30:23;4.10;99.90
54576;DHT22;40472;53.486;14.542;2023-04-08T03:32:49;4.10;99.90
54576;DHT22;40472;53.486;14.542;2023-04-08T03:35:14;4.00;99.90
54576;DHT22;40472;53.486;14.542;2023-04-08T03:37:40;4.00;99.90
54576;DHT22;40472;53.486;14.542;2023-04-08T03:40:06;4.00;99.90
54576;DHT22;40472;53.486;14.542;2023-04-08T03:42:32;4.00;99.90
54576;DHT22;40472;53.486;14.542;2023-04-08T03:44:59;4.00;99.90
54576;DHT22;40472;53.486;14.542;2023-04-08T03:47:25;4.00;99.90
54576;DHT22;40472;53.486;14.542;2023-04-08T03:49:54;4.00;99.90
54576;DHT22;40472;53.486;14.542;2023-04-08T03:52:20;4.00;99.90
54576;DHT22;40472;53.486;14.542;2023-04-08T03:54:46;4.00;99.90
54576;DHT22;40472;53.486;14.542;2023-04-08T03:57:12;4.00;99.90
54576;DHT22;40472;53.486;14.542;2023-04-08T03:59:38;4.00;99.90
54576;DHT22;40472;53.486;14.542;2023-04-08T04:02:05;4.00;99.90
54576;DHT22;40472;53.486;14.542;2023-04-08T04:04:31;4.00;99.90
54576;DHT22;40472;53.486;14.542;2023-04-08T04:06:57;4.00;99.90
54576;DHT22;40472;53.486;14.542;2023-04-08T04:09:23;4.00;99.90
54576;DHT22;40472;53.486;14.542;2023-04-08T04:11:48;4.00;99.90
54576;DHT22;40472;53.486;14.542;2023-04-08T04:14:14;4.00;99.90
54576;DHT22;40472;53.486;14.542;2023-04-08T04:16:40;4.00;99.90
54576;DHT22;40472;53.486;14.542;2023-04-08T04:19:06;4.00;99.90
54576;DHT22;40472;53.486;14.542;2023-04-08T04:21:32;4.00;99.90
54576;DHT22;40472;53.486;14.542;2023-04-08T04:23:57;4.00;99.90
54576;DHT22;40472;53.486;14.542;2023-04-08T04:26:23;4.00;99.90
54576;DHT22;40472;53.486;14.542;2023-04-08T04:28:49;4.00;99.90
54576;DHT22;40472;53.486;14.542;2023-04-08T04:31:22;4.00;99.90
54576;DHT22;40472;53.486;14.542;2023-04-08T04:33:50;4.00;99.90
54576;DHT22;40472;53.486;14.542;2023-04-08T04:36:16;4.00;99.90
54576;DHT22;40472;53.486;14.542;2023-04-08T04:38:44;4.00;99.90
54576;DHT22;40472;53.486;14.542;2023-04-08T04:41:10;4.00;99.90
54576;DHT22;40472;53.486;14.542;2023-04-08T04:43:36;4.00;99.90
54576;DHT22;40472;53.486;14.542;2023-04-08T04:46:02;4.00;99.90
54576;DHT22;40472;53.486;14.542;2023-04-08T04:48:32;4.00;99.90
54576;DHT22;40472;53.486;14.542;2023-04-08T04:50:59;4.00;99.90
54576;DHT22;40472;53.486;14.542;2023-04-08T04:53:29;4.10;99.90
54576;DHT22;40472;53.486;14.542;2023-04-08T04:55:55;4.10;99.90
54576;DHT22;40472;53.486;14.542;2023-04-08T04:58:21;4.10;99.90
54576;DHT22;40472;53.486;14.542;2023-04-08T05:00:46;4.10;99.90
54576;DHT22;40472;53.486;14.542;2023-04-08T05:03:12;4.10;99.90
54576;DHT22;40472;53.486;14.542;2023-04-08T05:05:38;4.10;99.90
54576;DHT22;40472;53.486;14.542;2023-04-08T05:08:04;4.00;99.90
54576;DHT22;40472;53.486;14.542;2023-04-08T05:10:33;4.10;99.90
54576;DHT22;40472;53.486;14.542;2023-04-08T05:12:59;4.10;99.90
54576;DHT22;40472;53.486;14.542;2023-04-08T05:15:25;4.20;99.90
54576;DHT22;40472;53.486;14.542;2023-04-08T05:17:50;4.10;99.90
54576;DHT22;40472;53.486;14.542;2023-04-08T05:20:16;4.20;99.90
54576;DHT22;40472;53.486;14.542;2023-04-08T05:22:42;4.10;99.90
54576;DHT22;40472;53.486;14.542;2023-04-08T05:25:10;4.10;99.90
54576;DHT22;40472;53.486;14.542;2023-04-08T05:27:36;4.20;99.90
54576;DHT22;40472;53.486;14.542;2023-04-08T05:30:02;4.20;99.90
54576;DHT22;40472;53.486;14.542;2023-04-08T05:32:29;4.20;99.90
54576;DHT22;40472;53.486;14.542;2023-04-08T05:34:55;4.10;99.90
54576;DHT22;40472;53.486;14.542;2023-04-08T05:37:20;4.20;99.90
54576;DHT22;40472;53.486;14.542;2023-04-08T05:39:46;4.30;99.90
54576;DHT22;40472;53.486;14.542;2023-04-08T05:42:12;4.30;99.90
54576;DHT22;40472;53.486;14.542;2023-04-08T05:44:38;4.30;99.90
54576;DHT22;40472;53.486;14.542;2023-04-08T05:47:06;4.30;99.90
54576;DHT22;40472;53.486;14.542;2023-04-08T05:49:33;4.30;99.90
54576;DHT22;40472;53.486;14.542;2023-04-08T05:51:58;4.30;99.90
54576;DHT22;40472;53.486;14.542;2023-04-08T05:54:24;4.50;99.90
54576;DHT22;40472;53.486;14.542;2023-04-08T05:56:50;4.60;99.90
54576;DHT22;40472;53.486;14.542;2023-04-08T05:59:16;4.60;99.90
54576;DHT22;40472;53.486;14.542;2023-04-08T06:01:41;4.60;99.90
54576;DHT22;40472;53.486;14.542;2023-04-08T06:04:07;4.60;99.90
54576;DHT22;40472;53.486;14.542;2023-04-08T06:06:33;4.60;99.90
54576;DHT22;40472;53.486;14.542;2023-04-08T06:08:58;4.60;99.90
54576;DHT22;40472;53.486;14.542;2023-04-08T06:11:24;4.70;99.90
54576;DHT22;40472;53.486;14.542;2023-04-08T06:13:50;4.70;99.90
54576;DHT22;40472;53.486;14.542;2023-04-08T06:16:16;4.80;99.90
54576;DHT22;40472;53.486;14.542;2023-04-08T06:18:42;4.80;99.90
54576;DHT22;40472;53.486;14.542;2023-04-08T06:21:09;4.80;99.90
54576;DHT22;40472;53.486;14.542;2023-04-08T06:23:35;4.90;99.90
54576;DHT22;40472;53.486;14.542;2023-04-08T06:26:01;4.90;99.90
54576;DHT22;40472;53.486;14.542;2023-04-08T06:28:30;4.90;99.90
54576;DHT22;40472;53.486;14.542;2023-04-08T06:30:57;5.00;99.90
54576;DHT22;40472;53.486;14.542;2023-04-08T06:33:23;5.00;99.90
54576;DHT22;40472;53.486;14.542;2023-04-08T06:35:49;5.10;99.90
54576;DHT22;40472;53.486;14.542;2023-04-08T06:38:15;5.10;99.90
54576;DHT22;40472;53.486;14.542;2023-04-08T06:40:41;5.10;99.90
54576;DHT22;40472;53.486;14.542;2023-04-08T06:43:06;5.20;99.90
54576;DHT22;40472;53.486;14.542;2023-04-08T06:45:33;5.30;99.90
54576;DHT22;40472;53.486;14.542;2023-04-08T06:47:59;5.30;99.90
54576;DHT22;40472;53.486;14.542;2023-04-08T06:50:25;5.30;99.90
54576;DHT22;40472;53.486;14.542;2023-04-08T06:52:51;5.20;99.90
54576;DHT22;40472;53.486;14.542;2023-04-08T06:55:17;5.30;99.90
54576;DHT22;40472;53.486;14.542;2023-04-08T06:57:43;5.30;99.90
54576;DHT22;40472;53.486;14.542;2023-04-08T07:00:09;5.30;99.90
54576;DHT22;40472;53.486;14.542;2023-04-08T07:02:35;5.30;99.90
54576;DHT22;40472;53.486;14.542;2023-04-08T07:05:01;5.40;99.90
54576;DHT22;40472;53.486;14.542;2023-04-08T07:07:26;5.50;99.90
54576;DHT22;40472;53.486;14.542;2023-04-08T07:09:52;5.70;99.90
54576;DHT22;40472;53.486;14.542;2023-04-08T07:12:18;5.90;99.90
54576;DHT22;40472;53.486;14.542;2023-04-08T07:14:44;6.00;99.90
54576;DHT22;40472;53.486;14.542;2023-04-08T07:17:10;6.10;99.90
54576;DHT22;40472;53.486;14.542;2023-04-08T07:19:35;6.10;99.90
54576;DHT22;40472;53.486;14.542;2023-04-08T07:22:02;6.30;99.90
54576;DHT22;40472;53.486;14.542;2023-04-08T07:24:27;6.30;99.90
54576;DHT22;40472;53.486;14.542;2023-04-08T07:26:53;6.40;99.90
54576;DHT22;40472;53.486;14.542;2023-04-08T07:29:21;6.40;99.90
54576;DHT22;40472;53.486;14.542;2023-04-08T07:31:47;6.30;99.90
54576;DHT22;40472;53.486;14.542;2023-04-08T07:34:14;6.30;99.90
54576;DHT22;40472;53.486;14.542;2023-04-08T07:36:42;6.30;99.90
54576;DHT22;40472;53.486;14.542;2023-04-08T07:39:08;6.40;99.90
54576;DHT22;40472;53.486;14.542;2023-04-08T07:41:37;6.30;99.90
54576;DHT22;40472;53.486;14.542;2023-04-08T07:44:08;6.40;99.90
54576;DHT22;40472;53.486;14.542;2023-04-08T07:46:38;6.50;99.90
54576;DHT22;40472;53.486;14.542;2023-04-08T07:49:04;6.50;99.90
54576;DHT22;40472;53.486;14.542;2023-04-08T07:51:31;6.60;99.90
54576;DHT22;40472;53.486;14.542;2023-04-08T07:53:57;6.70;99.90
54576;DHT22;40472;53.486;14.542;2023-04-08T07:56:23;6.70;99.90
54576;DHT22;40472;53.486;14.542;2023-04-08T07:58:51;6.80;99.90
54576;DHT22;40472;53.486;14.542;2023-04-08T08:01:19;6.80;99.90
54576;DHT22;40472;53.486;14.542;2023-04-08T08:03:47;6.80;99.90
54576;DHT22;40472;53.486;14.542;2023-04-08T08:06:13;6.90;99.90
54576;DHT22;40472;53.486;14.542;2023-04-08T08:08:38;6.90;99.90
54576;DHT22;40472;53.486;14.542;2023-04-08T08:11:05;6.80;99.90
54576;DHT22;40472;53.486;14.542;2023-04-08T08:13:30;6.80;99.90
54576;DHT22;40472;53.486;14.542;2023-04-08T08:15:57;6.80;99.90
54576;DHT22;40472;53.486;14.542;2023-04-08T08:18:23;7.00;99.90
54576;DHT22;40472;53.486;14.542;2023-04-08T08:20:48;7.10;99.90
54576;DHT22;40472;53.486;14.542;2023-04-08T08:23:14;7.30;99.90
54576;DHT22;40472;53.486;14.542;2023-04-08T08:25:40;7.40;99.90
54576;DHT22;40472;53.486;14.542;2023-04-08T08:28:06;7.60;99.90
54576;DHT22;40472;53.486;14.542;2023-04-08T08:30:31;7.60;99.90
54576;DHT22;40472;53.486;14.542;2023-04-08T08:32:57;7.80;99.90
54576;DHT22;40472;53.486;14.542;2023-04-08T08:35:26;7.60;99.90
54576;DHT22;40472;53.486;14.542;2023-04-08T08:37:52;7.70;99.90
54576;DHT22;40472;53.486;14.542;2023-04-08T08:40:18;7.80;99.90
54576;DHT22;40472;53.486;14.542;2023-04-08T08:42:50;7.60;99.90
54576;DHT22;40472;53.486;14.542;2023-04-08T08:45:19;7.20;99.90
54576;DHT22;40472;53.486;14.542;2023-04-08T08:47:45;7.40;99.90
54576;DHT22;40472;53.486;14.542;2023-04-08T08:50:11;7.70;99.90
54576;DHT22;40472;53.486;14.542;2023-04-08T08:52:37;7.80;99.90
54576;DHT22;40472;53.486;14.542;2023-04-08T08:55:03;7.90;99.90
54576;DHT22;40472;53.486;14.542;2023-04-08T08:57:29;7.50;99.90
54576;DHT22;40472;53.486;14.542;2023-04-08T08:59:55;7.20;99.90
54576;DHT22;40472;53.486;14.542;2023-04-08T09:05:01;7.50;99.90
54576;DHT22;40472;53.486;14.542;2023-04-08T09:07:29;7.30;99.90
54576;DHT22;40472;53.486;14.542;2023-04-08T09:09:56;7.30;99.90
54576;DHT22;40472;53.486;14.542;2023-04-08T09:12:23;7.30;99.90
54576;DHT22;40472;53.486;14.542;2023-04-08T09:14:50;7.20;99.90
54576;DHT22;40472;53.486;14.542;2023-04-08T09:17:34;7.40;99.90
54576;DHT22;40472;53.486;14.542;2023-04-08T09:20:09;7.50;99.90
54576;DHT22;40472;53.486;14.542;2023-04-08T09:27:50;7.80;99.90
54576;DHT22;40472;53.486;14.542;2023-04-08T09:30:17;8.10;99.90
54576;DHT22;40472;53.486;14.542;2023-04-08T09:32:49;7.90;99.90
54576;DHT22;40472;53.486;14.542;2023-04-08T09:35:16;8.30;99.90
54576;DHT22;40472;53.486;14.542;2023-04-08T09:37:42;8.20;99.90
54576;DHT22;40472;53.486;14.542;2023-04-08T09:40:08;8.00;99.90
54576;DHT22;40472;53.486;14.542;2023-04-08T09:42:39;7.80;99.90
54576;DHT22;40472;53.486;14.542;2023-04-08T09:45:06;8.00;99.90
54576;DHT22;40472;53.486;14.542;2023-04-08T09:47:41;8.00;99.90
54576;DHT22;40472;53.486;14.542;2023-04-08T09:50:11;8.10;99.90
54576;DHT22;40472;53.486;14.542;2023-04-08T09:52:46;8.00;99.90
54576;DHT22;40472;53.486;14.542;2023-04-08T09:55:16;7.80;99.90
54576;DHT22;40472;53.486;14.542;2023-04-08T09:58:03;7.90;99.90
54576;DHT22;40472;53.486;14.542;2023-04-08T10:00:39;7.80;99.90
54576;DHT22;40472;53.486;14.542;2023-04-08T10:05:36;7.70;99.90
54576;DHT22;40472;53.486;14.542;2023-04-08T10:08:03;7.80;99.90
54576;DHT22;40472;53.486;14.542;2023-04-08T10:10:30;7.90;99.90
54576;DHT22;40472;53.486;14.542;2023-04-08T10:12:56;7.90;99.90
54576;DHT22;40472;53.486;14.542;2023-04-08T10:15:32;7.80;99.90
54576;DHT22;40472;53.486;14.542;2023-04-08T10:23:04;8.50;99.90
54576;DHT22;40472;53.486;14.542;2023-04-08T10:25:35;8.50;99.90
54576;DHT22;40472;53.486;14.542;2023-04-08T10:28:23;8.60;99.90
54576;DHT22;40472;53.486;14.542;2023-04-08T10:30:54;8.50;99.90
54576;DHT22;40472;53.486;14.542;2023-04-08T10:38:36;8.50;99.90
54576;DHT22;40472;53.486;14.542;2023-04-08T10:41:02;8.60;99.90
54576;DHT22;40472;53.486;14.542;2023-04-08T10:43:32;8.40;99.90
54576;DHT22;40472;53.486;14.542;2023-04-08T10:45:59;8.60;99.90
54576;DHT22;40472;53.486;14.542;2023-04-08T10:48:25;8.60;99.90
54576;DHT22;40472;53.486;14.542;2023-04-08T10:50:55;8.70;99.90
54576;DHT22;40472;53.486;14.542;2023-04-08T10:53:35;8.80;99.90
54576;DHT22;40472;53.486;14.542;2023-04-08T10:56:12;9.10;99.90
54576;DHT22;40472;53.486;14.542;2023-04-08T10:58:53;9.10;99.90
54576;DHT22;40472;53.486;14.542;2023-04-08T11:01:22;9.10;99.90
54576;DHT22;40472;53.486;14.542;2023-04-08T11:03:48;8.90;99.90
54576;DHT22;40472;53.486;14.542;2023-04-08T11:06:15;9.00;99.90
54576;DHT22;40472;53.486;14.542;2023-04-08T11:08:42;8.80;99.90
54576;DHT22;40472;53.486;14.542;2023-04-08T11:11:09;8.80;99.90
54576;DHT22;40472;53.486;14.542;2023-04-08T11:13:43;8.60;99.90
54576;DHT22;40472;53.486;14.542;2023-04-08T11:16:09;8.50;99.90
54576;DHT22;40472;53.486;14.542;2023-04-08T11:18:37;8.70;99.90
54576;DHT22;40472;53.486;14.542;2023-04-08T11:21:08;8.80;99.90
54576;DHT22;40472;53.486;14.542;2023-04-08T11:23:35;9.10;99.90
54576;DHT22;40472;53.486;14.542;2023-04-08T11:26:01;9.50;99.90
54576;DHT22;40472;53.486;14.542;2023-04-08T11:28:27;9.50;99.90
54576;DHT22;40472;53.486;14.542;2023-04-08T11:30:53;9.30;99.90
54576;DHT22;40472;53.486;14.542;2023-04-08T11:33:19;9.20;99.90
54576;DHT22;40472;53.486;14.542;2023-04-08T11:35:49;9.50;99.90
54576;DHT22;40472;53.486;14.542;2023-04-08T11:38:16;9.70;99.90
54576;DHT22;40472;53.486;14.542;2023-04-08T11:40:54;9.80;99.90
54576;DHT22;40472;53.486;14.542;2023-04-08T11:43:19;9.80;99.90
54576;DHT22;40472;53.486;14.542;2023-04-08T11:45:46;9.60;99.90
54576;DHT22;40472;53.486;14.542;2023-04-08T11:48:13;9.40;99.90
54576;DHT22;40472;53.486;14.542;2023-04-08T11:50:40;9.30;99.90
54576;DHT22;40472;53.486;14.542;2023-04-08T11:53:19;9.00;99.90
54576;DHT22;40472;53.486;14.542;2023-04-08T11:55:45;8.80;99.90
54576;DHT22;40472;53.486;14.542;2023-04-08T11:58:12;8.90;99.90
54576;DHT22;40472;53.486;14.542;2023-04-08T12:00:37;8.90;99.90
54576;DHT22;40472;53.486;14.542;2023-04-08T12:03:05;8.70;99.90
54576;DHT22;40472;53.486;14.542;2023-04-08T12:05:31;8.80;99.90
54576;DHT22;40472;53.486;14.542;2023-04-08T12:07:57;9.00;99.90
54576;DHT22;40472;53.486;14.542;2023-04-08T12:10:23;9.20;99.90
54576;DHT22;40472;53.486;14.542;2023-04-08T12:12:52;9.40;99.90
54576;DHT22;40472;53.486;14.542;2023-04-08T12:15:18;9.50;99.90
54576;DHT22;40472;53.486;14.542;2023-04-08T12:17:44;9.60;99.90
54576;DHT22;40472;53.486;14.542;2023-04-08T12:20:11;9.60;99.90
54576;DHT22;40472;53.486;14.542;2023-04-08T12:22:37;9.20;99.90
54576;DHT22;40472;53.486;14.542;2023-04-08T12:25:03;9.10;99.90
54576;DHT22;40472;53.486;14.542;2023-04-08T12:27:32;9.20;99.90
54576;DHT22;40472;53.486;14.542;2023-04-08T12:29:58;9.50;99.90
54576;DHT22;40472;53.486;14.542;2023-04-08T12:32:25;9.50;99.90
54576;DHT22;40472;53.486;14.542;2023-04-08T12:34:51;9.50;99.90
54576;DHT22;40472;53.486;14.542;2023-04-08T12:37:17;9.70;99.90
54576;DHT22;40472;53.486;14.542;2023-04-08T12:39:42;9.90;99.90
54576;DHT22;40472;53.486;14.542;2023-04-08T12:42:08;10.00;99.90
54576;DHT22;40472;53.486;14.542;2023-04-08T12:44:34;10.00;99.90
54576;DHT22;40472;53.486;14.542;2023-04-08T12:47:00;10.10;99.90
54576;DHT22;40472;53.486;14.542;2023-04-08T12:49:26;10.10;99.90
54576;DHT22;40472;53.486;14.542;2023-04-08T12:51:52;9.90;99.90
54576;DHT22;40472;53.486;14.542;2023-04-08T12:54:19;10.00;99.90
54576;DHT22;40472;53.486;14.542;2023-04-08T12:56:46;10.00;99.90
54576;DHT22;40472;53.486;14.542;2023-04-08T12:59:13;10.00;99.90
54576;DHT22;40472;53.486;14.542;2023-04-08T13:01:39;10.00;99.90
54576;DHT22;40472;53.486;14.542;2023-04-08T13:04:06;10.20;99.90
54576;DHT22;40472;53.486;14.542;2023-04-08T13:06:32;10.10;99.90
54576;DHT22;40472;53.486;14.542;2023-04-08T13:08:58;10.20;99.90
54576;DHT22;40472;53.486;14.542;2023-04-08T13:11:23;10.30;99.90
54576;DHT22;40472;53.486;14.542;2023-04-08T13:13:49;10.30;99.90
54576;DHT22;40472;53.486;14.542;2023-04-08T13:16:16;10.30;99.90
54576;DHT22;40472;53.486;14.542;2023-04-08T13:18:42;10.30;99.90
54576;DHT22;40472;53.486;14.542;2023-04-08T13:21:08;10.40;99.90
54576;DHT22;40472;53.486;14.542;2023-04-08T13:26:56;10.30;99.90
54576;DHT22;40472;53.486;14.542;2023-04-08T13:36:10;11.10;99.90
54576;DHT22;40472;53.486;14.542;2023-04-08T13:38:36;11.70;99.90
54576;DHT22;40472;53.486;14.542;2023-04-08T13:41:02;11.70;99.90
54576;DHT22;40472;53.486;14.542;2023-04-08T13:43:28;11.70;99.90
54576;DHT22;40472;53.486;14.542;2023-04-08T13:45:54;11.20;99.90
54576;DHT22;40472;53.486;14.542;2023-04-08T13:48:20;11.20;99.90
54576;DHT22;40472;53.486;14.542;2023-04-08T13:50:46;11.30;99.90
54576;DHT22;40472;53.486;14.542;2023-04-08T13:53:12;11.00;99.90
54576;DHT22;40472;53.486;14.542;2023-04-08T13:55:38;10.70;99.90
54576;DHT22;40472;53.486;14.542;2023-04-08T13:58:03;10.60;99.90
54576;DHT22;40472;53.486;14.542;2023-04-08T14:00:29;10.50;99.90
54576;DHT22;40472;53.486;14.542;2023-04-08T14:02:56;10.40;99.90
54576;DHT22;40472;53.486;14.542;2023-04-08T14:05:22;10.40;99.90
54576;DHT22;40472;53.486;14.542;2023-04-08T14:07:48;10.40;99.90
54576;DHT22;40472;53.486;14.542;2023-04-08T14:10:14;10.40;99.90
54576;DHT22;40472;53.486;14.542;2023-04-08T14:12:42;10.40;99.90
54576;DHT22;40472;53.486;14.542;2023-04-08T14:15:08;10.40;99.90
54576;DHT22;40472;53.486;14.542;2023-04-08T14:17:34;10.40;99.90
54576;DHT22;40472;53.486;14.542;2023-04-08T14:20:00;10.50;99.90
54576;DHT22;40472;53.486;14.542;2023-04-08T14:22:26;10.40;99.90
54576;DHT22;40472;53.486;14.542;2023-04-08T14:24:52;10.40;99.90
54576;DHT22;40472;53.486;14.542;2023-04-08T14:27:19;10.40;99.90
54576;DHT22;40472;53.486;14.542;2023-04-08T14:29:44;10.30;99.90
54576;DHT22;40472;53.486;14.542;2023-04-08T14:32:10;10.30;99.90
54576;DHT22;40472;53.486;14.542;2023-04-08T14:34:36;10.30;99.90
54576;DHT22;40472;53.486;14.542;2023-04-08T14:37:02;10.40;99.90
54576;DHT22;40472;53.486;14.542;2023-04-08T14:39:28;10.50;99.90
54576;DHT22;40472;53.486;14.542;2023-04-08T14:41:54;10.60;99.90
54576;DHT22;40472;53.486;14.542;2023-04-08T14:44:22;10.90;99.90
54576;DHT22;40472;53.486;14.542;2023-04-08T14:46:48;11.20;99.90
54576;DHT22;40472;53.486;14.542;2023-04-08T14:49:13;11.30;99.90
54576;DHT22;40472;53.486;14.542;2023-04-08T14:51:40;11.10;99.90
54576;DHT22;40472;53.486;14.542;2023-04-08T14:54:06;10.80;99.90
54576;DHT22;40472;53.486;14.542;2023-04-08T14:56:32;10.30;99.90
54576;DHT22;40472;53.486;14.542;2023-04-08T14:58:58;10.10;99.90
54576;DHT22;40472;53.486;14.542;2023-04-08T15:01:23;10.10;99.90
54576;DHT22;40472;53.486;14.542;2023-04-08T15:03:49;10.30;99.90
54576;DHT22;40472;53.486;14.542;2023-04-08T15:06:16;10.50;99.90
54576;DHT22;40472;53.486;14.542;2023-04-08T15:08:43;10.60;99.90
54576;DHT22;40472;53.486;14.542;2023-04-08T15:11:10;10.60;99.90
54576;DHT22;40472;53.486;14.542;2023-04-08T15:13:36;10.50;99.90
54576;DHT22;40472;53.486;14.542;2023-04-08T15:16:02;10.30;99.90
54576;DHT22;40472;53.486;14.542;2023-04-08T15:18:28;10.00;99.90
54576;DHT22;40472;53.486;14.542;2023-04-08T15:20:54;9.90;99.90
54576;DHT22;40472;53.486;14.542;2023-04-08T15:23:21;9.50;99.90
54576;DHT22;40472;53.486;14.542;2023-04-08T15:25:47;9.30;99.90
54576;DHT22;40472;53.486;14.542;2023-04-08T15:28:13;9.30;99.90
54576;DHT22;40472;53.486;14.542;2023-04-08T15:30:39;9.10;99.90
54576;DHT22;40472;53.486;14.542;2023-04-08T15:33:05;9.10;99.90
54576;DHT22;40472;53.486;14.542;2023-04-08T15:35:31;9.10;99.90
54576;DHT22;40472;53.486;14.542;2023-04-08T15:37:57;9.20;99.90
54576;DHT22;40472;53.486;14.542;2023-04-08T15:40:23;9.20;99.90
54576;DHT22;40472;53.486;14.542;2023-04-08T15:42:50;9.20;99.90
54576;DHT22;40472;53.486;14.542;2023-04-08T15:45:16;9.30;99.90
54576;DHT22;40472;53.486;14.542;2023-04-08T15:47:42;9.40;99.90
54576;DHT22;40472;53.486;14.542;2023-04-08T15:50:08;9.20;99.90
54576;DHT22;40472;53.486;14.542;2023-04-08T15:52:34;9.20;99.90
54576;DHT22;40472;53.486;14.542;2023-04-08T15:55:00;9.00;99.90
54576;DHT22;40472;53.486;14.542;2023-04-08T15:57:27;8.80;99.90
54576;DHT22;40472;53.486;14.542;2023-04-08T15:59:55;8.80;99.90